sensor_id;sensor_type;location;lat;lon;timestamp;P1;durP1;ratioP1;P2;durP2;ratioP2
22046;SDS011;11187;49.412;20.956;2022-11-06T00:01:08;23.80;;;22.13;;
22046;SDS011;11187;49.412;20.956;2022-11-06T00:03:46;22.13;;;20.35;;
22046;SDS011;11187;49.412;20.956;2022-11-06T00:06:40;23.25;;;21.65;;
22046;SDS011;11187;49.412;20.956;2022-11-06T00:09:34;23.02;;;21.25;;
22046;SDS011;11187;49.412;20.956;2022-11-06T00:12:07;21.45;;;19.80;;
22046;SDS011;11187;49.412;20.956;2022-11-06T00:14:54;22.13;;;20.52;;
22046;SDS011;11187;49.412;20.956;2022-11-06T00:17:27;22.80;;;21.10;;
22046;SDS011;11187;49.412;20.956;2022-11-06T00:20:14;22.63;;;21.02;;
22046;SDS011;11187;49.412;20.956;2022-11-06T00:22:49;22.52;;;20.83;;
22046;SDS011;11187;49.412;20.956;2022-11-06T00:25:38;22.52;;;20.88;;
22046;SDS011;11187;49.412;20.956;2022-11-06T00:28:12;22.85;;;21.35;;
22046;SDS011;11187;49.412;20.956;2022-11-06T00:31:08;21.88;;;20.38;;
22046;SDS011;11187;49.412;20.956;2022-11-06T00:33:45;21.75;;;20.08;;
22046;SDS011;11187;49.412;20.956;2022-11-06T00:36:33;23.00;;;21.30;;
22046;SDS011;11187;49.412;20.956;2022-11-06T00:39:08;23.98;;;22.27;;
22046;SDS011;11187;49.412;20.956;2022-11-06T00:42:03;22.30;;;20.73;;
22046;SDS011;11187;49.412;20.956;2022-11-06T00:44:57;23.10;;;21.30;;
22046;SDS011;11187;49.412;20.956;2022-11-06T00:47:30;23.10;;;21.30;;
22046;SDS011;11187;49.412;20.956;2022-11-06T00:50:17;20.75;;;19.27;;
22046;SDS011;11187;49.412;20.956;2022-11-06T00:52:50;20.70;;;19.20;;
22046;SDS011;11187;49.412;20.956;2022-11-06T00:55:37;22.95;;;21.15;;
22046;SDS011;11187;49.412;20.956;2022-11-06T00:58:10;22.80;;;21.15;;
22046;SDS011;11187;49.412;20.956;2022-11-06T01:01:11;23.30;;;21.58;;
22046;SDS011;11187;49.412;20.956;2022-11-06T01:04:06;22.58;;;20.88;;
22046;SDS011;11187;49.412;20.956;2022-11-06T01:07:03;20.92;;;19.42;;
22046;SDS011;11187;49.412;20.956;2022-11-06T01:09:36;21.63;;;20.00;;
22046;SDS011;11187;49.412;20.956;2022-11-06T01:12:31;23.73;;;21.92;;
22046;SDS011;11187;49.412;20.956;2022-11-06T01:15:05;23.50;;;21.80;;
22046;SDS011;11187;49.412;20.956;2022-11-06T01:18:00;23.25;;;21.33;;
22046;SDS011;11187;49.412;20.956;2022-11-06T01:20:54;23.40;;;21.58;;
22046;SDS011;11187;49.412;20.956;2022-11-06T01:23:52;21.55;;;20.15;;
22046;SDS011;11187;49.412;20.956;2022-11-06T01:26:27;20.67;;;19.08;;
22046;SDS011;11187;49.412;20.956;2022-11-06T01:29:21;21.92;;;20.52;;
22046;SDS011;11187;49.412;20.956;2022-11-06T01:31:54;21.75;;;20.05;;
22046;SDS011;11187;49.412;20.956;2022-11-06T01:34:41;21.48;;;19.98;;
22046;SDS011;11187;49.412;20.956;2022-11-06T01:37:14;21.45;;;19.95;;
22046;SDS011;11187;49.412;20.956;2022-11-06T01:40:01;20.20;;;18.80;;
22046;SDS011;11187;49.412;20.956;2022-11-06T01:42:34;22.65;;;21.08;;
22046;SDS011;11187;49.412;20.956;2022-11-06T01:45:26;22.13;;;20.60;;
22046;SDS011;11187;49.412;20.956;2022-11-06T01:48:11;22.90;;;21.20;;
22046;SDS011;11187;49.412;20.956;2022-11-06T01:50:59;21.85;;;20.23;;
22046;SDS011;11187;49.412;20.956;2022-11-06T01:53:32;21.52;;;20.02;;
22046;SDS011;11187;49.412;20.956;2022-11-06T01:56:28;21.83;;;20.20;;
22046;SDS011;11187;49.412;20.956;2022-11-06T01:59:26;21.45;;;19.98;;
22046;SDS011;11187;49.412;20.956;2022-11-06T02:02:01;21.02;;;19.63;;
22046;SDS011;11187;49.412;20.956;2022-11-06T02:04:55;23.08;;;21.45;;
22046;SDS011;11187;49.412;20.956;2022-11-06T02:07:28;22.50;;;20.90;;
22046;SDS011;11187;49.412;20.956;2022-11-06T02:10:15;22.45;;;20.65;;
22046;SDS011;11187;49.412;20.956;2022-11-06T02:16:25;20.40;;;19.10;;
22046;SDS011;11187;49.412;20.956;2022-11-06T02:19:29;20.88;;;19.48;;
22046;SDS011;11187;49.412;20.956;2022-11-06T02:22:30;21.95;;;20.25;;
22046;SDS011;11187;49.412;20.956;2022-11-06T02:28:02;21.08;;;19.52;;
22046;SDS011;11187;49.412;20.956;2022-11-06T02:31:04;22.35;;;20.85;;
22046;SDS011;11187;49.412;20.956;2022-11-06T02:33:43;21.15;;;19.70;;
22046;SDS011;11187;49.412;20.956;2022-11-06T02:36:46;20.65;;;19.30;;
22046;SDS011;11187;49.412;20.956;2022-11-06T02:39:28;19.83;;;18.52;;
22046;SDS011;11187;49.412;20.956;2022-11-06T02:42:25;20.70;;;19.20;;
22046;SDS011;11187;49.412;20.956;2022-11-06T02:45:01;22.77;;;21.27;;
22046;SDS011;11187;49.412;20.956;2022-11-06T02:47:50;21.60;;;20.20;;
22046;SDS011;11187;49.412;20.956;2022-11-06T02:50:29;22.23;;;20.52;;
22046;SDS011;11187;49.412;20.956;2022-11-06T02:53:19;20.08;;;18.77;;
22046;SDS011;11187;49.412;20.956;2022-11-06T02:55:57;20.23;;;18.92;;
22046;SDS011;11187;49.412;20.956;2022-11-06T02:58:51;20.40;;;19.15;;
22046;SDS011;11187;49.412;20.956;2022-11-06T03:01:31;19.15;;;17.95;;
22046;SDS011;11187;49.412;20.956;2022-11-06T03:04:27;20.27;;;19.08;;
22046;SDS011;11187;49.412;20.956;2022-11-06T03:07:17;20.05;;;18.73;;
22046;SDS011;11187;49.412;20.956;2022-11-06T03:10:14;18.55;;;17.45;;
22046;SDS011;11187;49.412;20.956;2022-11-06T03:13:13;20.17;;;18.98;;
22046;SDS011;11187;49.412;20.956;2022-11-06T03:16:25;21.60;;;20.10;;
22046;SDS011;11187;49.412;20.956;2022-11-06T03:19:04;21.65;;;20.02;;
22046;SDS011;11187;49.412;20.956;2022-11-06T03:22:03;20.75;;;19.38;;
22046;SDS011;11187;49.412;20.956;2022-11-06T03:30:54;19.38;;;18.08;;
22046;SDS011;11187;49.412;20.956;2022-11-06T03:33:39;21.15;;;19.85;;
22046;SDS011;11187;49.412;20.956;2022-11-06T03:36:33;19.85;;;18.52;;
22046;SDS011;11187;49.412;20.956;2022-11-06T03:39:10;20.42;;;19.13;;
22046;SDS011;11187;49.412;20.956;2022-11-06T03:42:03;19.58;;;18.17;;
22046;SDS011;11187;49.412;20.956;2022-11-06T03:44:39;20.55;;;19.17;;
22046;SDS011;11187;49.412;20.956;2022-11-06T03:47:37;20.98;;;19.40;;
22046;SDS011;11187;49.412;20.956;2022-11-06T03:50:19;20.17;;;18.88;;
22046;SDS011;11187;49.412;20.956;2022-11-06T03:53:22;20.92;;;19.52;;
22046;SDS011;11187;49.412;20.956;2022-11-06T03:56:43;20.50;;;19.20;;
22046;SDS011;11187;49.412;20.956;2022-11-06T03:59:14;20.45;;;19.15;;
22046;SDS011;11187;49.412;20.956;2022-11-06T04:01:50;20.30;;;18.58;;
22046;SDS011;11187;49.412;20.956;2022-11-06T04:04:47;18.45;;;17.15;;
22046;SDS011;11187;49.412;20.956;2022-11-06T04:07:23;18.73;;;17.55;;
22046;SDS011;11187;49.412;20.956;2022-11-06T04:10:23;20.48;;;19.17;;
22046;SDS011;11187;49.412;20.956;2022-11-06T04:13:35;20.70;;;19.30;;
22046;SDS011;11187;49.412;20.956;2022-11-06T04:16:51;20.42;;;19.02;;
22046;SDS011;11187;49.412;20.956;2022-11-06T04:19:48;19.65;;;18.35;;
22046;SDS011;11187;49.412;20.956;2022-11-06T04:22:53;19.30;;;18.10;;
22046;SDS011;11187;49.412;20.956;2022-11-06T04:25:58;19.70;;;18.45;;
22046;SDS011;11187;49.412;20.956;2022-11-06T04:29:19;21.13;;;19.77;;
22046;SDS011;11187;49.412;20.956;2022-11-06T04:32:32;18.48;;;17.27;;
22046;SDS011;11187;49.412;20.956;2022-11-06T04:44:59;20.58;;;19.08;;
22046;SDS011;11187;49.412;20.956;2022-11-06T04:47:36;21.00;;;19.65;;
22046;SDS011;11187;49.412;20.956;2022-11-06T04:50:24;19.80;;;18.50;;
22046;SDS011;11187;49.412;20.956;2022-11-06T04:53:01;22.02;;;20.52;;
22046;SDS011;11187;49.412;20.956;2022-11-06T04:56:01;18.80;;;17.67;;
22046;SDS011;11187;49.412;20.956;2022-11-06T04:59:04;19.52;;;18.23;;
22046;SDS011;11187;49.412;20.956;2022-11-06T05:01:38;19.38;;;18.17;;
22046;SDS011;11187;49.412;20.956;2022-11-06T05:04:26;20.77;;;19.38;;
22046;SDS011;11187;49.412;20.956;2022-11-06T05:06:59;21.05;;;19.65;;
22046;SDS011;11187;49.412;20.956;2022-11-06T05:09:46;19.25;;;17.95;;
22046;SDS011;11187;49.412;20.956;2022-11-06T05:12:19;19.95;;;18.65;;
22046;SDS011;11187;49.412;20.956;2022-11-06T05:15:08;20.80;;;19.50;;
22046;SDS011;11187;49.412;20.956;2022-11-06T05:17:41;21.10;;;19.40;;
22046;SDS011;11187;49.412;20.956;2022-11-06T05:20:28;19.50;;;18.17;;
22046;SDS011;11187;49.412;20.956;2022-11-06T05:23:01;20.92;;;19.42;;
22046;SDS011;11187;49.412;20.956;2022-11-06T05:25:55;20.35;;;18.95;;
22046;SDS011;11187;49.412;20.956;2022-11-06T05:28:28;20.83;;;19.42;;
22046;SDS011;11187;49.412;20.956;2022-11-06T05:31:22;20.15;;;18.75;;
22046;SDS011;11187;49.412;20.956;2022-11-06T05:34:17;19.88;;;18.58;;
22046;SDS011;11187;49.412;20.956;2022-11-06T05:37:11;21.15;;;19.65;;
22046;SDS011;11187;49.412;20.956;2022-11-06T05:40:05;19.80;;;18.50;;
22046;SDS011;11187;49.412;20.956;2022-11-06T05:43:00;20.30;;;18.83;;
22046;SDS011;11187;49.412;20.956;2022-11-06T05:45:33;19.35;;;18.05;;
22046;SDS011;11187;49.412;20.956;2022-11-06T05:48:20;19.00;;;17.77;;
22046;SDS011;11187;49.412;20.956;2022-11-06T05:50:58;19.75;;;18.45;;
22046;SDS011;11187;49.412;20.956;2022-11-06T05:53:49;20.50;;;19.05;;
22046;SDS011;11187;49.412;20.956;2022-11-06T05:56:22;21.05;;;19.63;;
22046;SDS011;11187;49.412;20.956;2022-11-06T05:59:09;18.25;;;16.85;;
22046;SDS011;11187;49.412;20.956;2022-11-06T06:01:42;19.40;;;18.08;;
22046;SDS011;11187;49.412;20.956;2022-11-06T06:04:36;19.65;;;18.33;;
22046;SDS011;11187;49.412;20.956;2022-11-06T06:07:30;18.27;;;16.60;;
22046;SDS011;11187;49.412;20.956;2022-11-06T06:10:24;18.63;;;17.33;;
22046;SDS011;11187;49.412;20.956;2022-11-06T06:12:57;19.48;;;18.08;;
22046;SDS011;11187;49.412;20.956;2022-11-06T06:15:47;18.65;;;17.40;;
22046;SDS011;11187;49.412;20.956;2022-11-06T06:18:20;20.05;;;18.65;;
22046;SDS011;11187;49.412;20.956;2022-11-06T06:21:07;19.60;;;18.25;;
22046;SDS011;11187;49.412;20.956;2022-11-06T06:23:40;16.75;;;15.45;;
22046;SDS011;11187;49.412;20.956;2022-11-06T06:26:27;19.77;;;18.42;;
22046;SDS011;11187;49.412;20.956;2022-11-06T06:29:00;19.23;;;17.92;;
22046;SDS011;11187;49.412;20.956;2022-11-06T06:31:54;19.75;;;18.38;;
22046;SDS011;11187;49.412;20.956;2022-11-06T06:34:27;18.40;;;17.00;;
22046;SDS011;11187;49.412;20.956;2022-11-06T06:37:14;20.10;;;18.65;;
22046;SDS011;11187;49.412;20.956;2022-11-06T06:39:47;21.00;;;19.60;;
22046;SDS011;11187;49.412;20.956;2022-11-06T06:42:34;19.77;;;18.42;;
22046;SDS011;11187;49.412;20.956;2022-11-06T06:45:09;20.42;;;19.02;;
22046;SDS011;11187;49.412;20.956;2022-11-06T06:48:00;20.10;;;18.60;;
22046;SDS011;11187;49.412;20.956;2022-11-06T06:50:34;20.35;;;18.95;;
22046;SDS011;11187;49.412;20.956;2022-11-06T06:53:28;20.48;;;18.80;;
22046;SDS011;11187;49.412;20.956;2022-11-06T06:56:22;18.60;;;17.30;;
22046;SDS011;11187;49.412;20.956;2022-11-06T06:58:55;17.50;;;16.30;;
22046;SDS011;11187;49.412;20.956;2022-11-06T07:01:42;18.95;;;17.73;;
22046;SDS011;11187;49.412;20.956;2022-11-06T07:04:16;18.80;;;17.50;;
22046;SDS011;11187;49.412;20.956;2022-11-06T07:07:05;18.10;;;16.60;;
22046;SDS011;11187;49.412;20.956;2022-11-06T07:09:41;18.67;;;17.38;;
22046;SDS011;11187;49.412;20.956;2022-11-06T07:12:36;19.25;;;18.05;;
22046;SDS011;11187;49.412;20.956;2022-11-06T07:15:30;20.13;;;18.83;;
22046;SDS011;11187;49.412;20.956;2022-11-06T07:18:05;19.92;;;18.63;;
22046;SDS011;11187;49.412;20.956;2022-11-06T07:20:59;18.88;;;17.58;;
22046;SDS011;11187;49.412;20.956;2022-11-06T07:23:53;19.30;;;17.90;;
22046;SDS011;11187;49.412;20.956;2022-11-06T07:26:26;19.95;;;18.55;;
22046;SDS011;11187;49.412;20.956;2022-11-06T07:29:13;19.58;;;17.88;;
22046;SDS011;11187;49.412;20.956;2022-11-06T07:31:46;17.98;;;16.67;;
22046;SDS011;11187;49.412;20.956;2022-11-06T07:34:35;21.25;;;19.75;;
22046;SDS011;11187;49.412;20.956;2022-11-06T07:37:10;19.08;;;17.88;;
22046;SDS011;11187;49.412;20.956;2022-11-06T07:39:57;20.17;;;18.67;;
22046;SDS011;11187;49.412;20.956;2022-11-06T07:42:30;19.95;;;18.40;;
22046;SDS011;11187;49.412;20.956;2022-11-06T07:45:22;18.73;;;17.25;;
22046;SDS011;11187;49.412;20.956;2022-11-06T07:47:55;20.52;;;19.13;;
22046;SDS011;11187;49.412;20.956;2022-11-06T07:50:43;21.38;;;19.77;;
22046;SDS011;11187;49.412;20.956;2022-11-06T07:53:16;20.45;;;18.65;;
22046;SDS011;11187;49.412;20.956;2022-11-06T07:56:10;19.65;;;18.27;;
22046;SDS011;11187;49.412;20.956;2022-11-06T07:58:43;19.42;;;18.02;;
22046;SDS011;11187;49.412;20.956;2022-11-06T08:01:37;19.85;;;18.45;;
22046;SDS011;11187;49.412;20.956;2022-11-06T08:04:14;21.75;;;20.15;;
22046;SDS011;11187;49.412;20.956;2022-11-06T08:07:01;21.08;;;19.45;;
22046;SDS011;11187;49.412;20.956;2022-11-06T08:09:34;19.15;;;17.75;;
22046;SDS011;11187;49.412;20.956;2022-11-06T08:12:21;19.60;;;18.10;;
22046;SDS011;11187;49.412;20.956;2022-11-06T08:14:55;19.58;;;18.05;;
22046;SDS011;11187;49.412;20.956;2022-11-06T08:17:35;19.35;;;18.00;;
22046;SDS011;11187;49.412;20.956;2022-11-06T08:20:16;20.65;;;19.15;;
22046;SDS011;11187;49.412;20.956;2022-11-06T08:23:11;21.30;;;19.70;;
22046;SDS011;11187;49.412;20.956;2022-11-06T08:26:07;19.70;;;18.30;;
22046;SDS011;11187;49.412;20.956;2022-11-06T08:29:03;19.73;;;18.13;;
22046;SDS011;11187;49.412;20.956;2022-11-06T08:31:36;20.80;;;19.13;;
22046;SDS011;11187;49.412;20.956;2022-11-06T08:34:23;20.40;;;18.90;;
22046;SDS011;11187;49.412;20.956;2022-11-06T08:36:56;19.35;;;17.85;;
22046;SDS011;11187;49.412;20.956;2022-11-06T08:39:43;19.58;;;18.17;;
22046;SDS011;11187;49.412;20.956;2022-11-06T08:42:17;19.83;;;18.17;;
22046;SDS011;11187;49.412;20.956;2022-11-06T08:45:04;19.10;;;17.48;;
22046;SDS011;11187;49.412;20.956;2022-11-06T08:47:51;18.83;;;17.33;;
22046;SDS011;11187;49.412;20.956;2022-11-06T08:50:39;19.15;;;17.85;;
22046;SDS011;11187;49.412;20.956;2022-11-06T08:53:13;19.48;;;18.00;;
22046;SDS011;11187;49.412;20.956;2022-11-06T08:56:07;17.45;;;16.15;;
22046;SDS011;11187;49.412;20.956;2022-11-06T08:58:40;18.25;;;16.73;;
22046;SDS011;11187;49.412;20.956;2022-11-06T09:01:33;18.75;;;17.25;;
22046;SDS011;11187;49.412;20.956;2022-11-06T09:04:08;20.77;;;19.17;;
22046;SDS011;11187;49.412;20.956;2022-11-06T09:06:55;20.63;;;19.00;;
22046;SDS011;11187;49.412;20.956;2022-11-06T09:09:29;18.60;;;17.30;;
22046;SDS011;11187;49.412;20.956;2022-11-06T09:12:16;20.02;;;18.52;;
22046;SDS011;11187;49.412;20.956;2022-11-06T09:14:52;19.70;;;18.20;;
22046;SDS011;11187;49.412;20.956;2022-11-06T09:17:47;18.02;;;16.63;;
22046;SDS011;11187;49.412;20.956;2022-11-06T09:20:22;19.08;;;17.65;;
22046;SDS011;11187;49.412;20.956;2022-11-06T09:23:11;19.27;;;17.90;;
22046;SDS011;11187;49.412;20.956;2022-11-06T09:25:44;22.73;;;20.73;;
22046;SDS011;11187;49.412;20.956;2022-11-06T09:28:38;19.85;;;18.40;;
22046;SDS011;11187;49.412;20.956;2022-11-06T09:31:32;19.42;;;17.83;;
22046;SDS011;11187;49.412;20.956;2022-11-06T09:34:05;19.17;;;17.88;;
22046;SDS011;11187;49.412;20.956;2022-11-06T09:36:52;20.15;;;18.55;;
22046;SDS011;11187;49.412;20.956;2022-11-06T09:39:25;19.08;;;17.67;;
22046;SDS011;11187;49.412;20.956;2022-11-06T09:45:02;17.27;;;15.90;;
22046;SDS011;11187;49.412;20.956;2022-11-06T09:48:45;21.08;;;19.45;;
22046;SDS011;11187;49.412;20.956;2022-11-06T09:51:15;20.58;;;18.98;;
22046;SDS011;11187;49.412;20.956;2022-11-06T09:54:18;18.20;;;16.83;;
22046;SDS011;11187;49.412;20.956;2022-11-06T09:57:03;17.70;;;16.20;;
22046;SDS011;11187;49.412;20.956;2022-11-06T09:59:56;20.50;;;19.02;;
22046;SDS011;11187;49.412;20.956;2022-11-06T10:02:39;22.23;;;20.52;;
22046;SDS011;11187;49.412;20.956;2022-11-06T10:05:38;20.83;;;19.02;;
22046;SDS011;11187;49.412;20.956;2022-11-06T10:08:23;20.77;;;19.08;;
22046;SDS011;11187;49.412;20.956;2022-11-06T10:13:56;19.83;;;18.05;;
22046;SDS011;11187;49.412;20.956;2022-11-06T10:16:55;21.02;;;19.23;;
22046;SDS011;11187;49.412;20.956;2022-11-06T10:19:38;21.95;;;20.13;;
22046;SDS011;11187;49.412;20.956;2022-11-06T10:22:37;21.00;;;19.20;;
22046;SDS011;11187;49.412;20.956;2022-11-06T10:25:23;23.13;;;21.30;;
22046;SDS011;11187;49.412;20.956;2022-11-06T10:31:53;18.13;;;16.42;;
22046;SDS011;11187;49.412;20.956;2022-11-06T10:34:36;20.00;;;18.40;;
22046;SDS011;11187;49.412;20.956;2022-11-06T10:37:27;18.42;;;16.90;;
22046;SDS011;11187;49.412;20.956;2022-11-06T10:40:05;20.25;;;18.75;;
22046;SDS011;11187;49.412;20.956;2022-11-06T10:43:05;20.02;;;18.33;;
22046;SDS011;11187;49.412;20.956;2022-11-06T10:45:43;19.58;;;17.98;;
22046;SDS011;11187;49.412;20.956;2022-11-06T10:48:36;20.65;;;19.00;;
22046;SDS011;11187;49.412;20.956;2022-11-06T10:58:01;21.08;;;19.58;;
22046;SDS011;11187;49.412;20.956;2022-11-06T11:00:57;17.70;;;16.40;;
22046;SDS011;11187;49.412;20.956;2022-11-06T11:03:55;16.63;;;15.20;;
22046;SDS011;11187;49.412;20.956;2022-11-06T11:06:49;18.75;;;17.35;;
22046;SDS011;11187;49.412;20.956;2022-11-06T11:09:45;19.52;;;17.95;;
22046;SDS011;11187;49.412;20.956;2022-11-06T11:12:30;18.10;;;16.85;;
22046;SDS011;11187;49.412;20.956;2022-11-06T11:15:23;18.70;;;17.30;;
22046;SDS011;11187;49.412;20.956;2022-11-06T11:26:50;19.05;;;17.48;;
22046;SDS011;11187;49.412;20.956;2022-11-06T11:29:26;16.55;;;15.02;;
22046;SDS011;11187;49.412;20.956;2022-11-06T11:32:15;18.00;;;16.70;;
22046;SDS011;11187;49.412;20.956;2022-11-06T11:34:53;18.08;;;16.77;;
22046;SDS011;11187;49.412;20.956;2022-11-06T11:37:34;18.67;;;17.27;;
22046;SDS011;11187;49.412;20.956;2022-11-06T11:40:19;19.23;;;17.60;;
22046;SDS011;11187;49.412;20.956;2022-11-06T11:43:14;20.17;;;18.58;;
22046;SDS011;11187;49.412;20.956;2022-11-06T11:51:39;18.38;;;16.95;;
22046;SDS011;11187;49.412;20.956;2022-11-06T11:54:19;18.92;;;17.48;;
22046;SDS011;11187;49.412;20.956;2022-11-06T11:57:16;19.77;;;18.13;;
22046;SDS011;11187;49.412;20.956;2022-11-06T11:59:56;22.80;;;21.20;;
22046;SDS011;11187;49.412;20.956;2022-11-06T12:02:58;22.75;;;21.02;;
22046;SDS011;11187;49.412;20.956;2022-11-06T12:05:37;19.20;;;17.70;;
22046;SDS011;11187;49.412;20.956;2022-11-06T12:08:33;18.35;;;16.90;;
22046;SDS011;11187;49.412;20.956;2022-11-06T12:11:08;20.52;;;18.73;;
22046;SDS011;11187;49.412;20.956;2022-11-06T12:16:54;20.20;;;18.60;;
22046;SDS011;11187;49.412;20.956;2022-11-06T12:19:53;19.33;;;17.83;;
22046;SDS011;11187;49.412;20.956;2022-11-06T12:22:50;21.90;;;20.20;;
22046;SDS011;11187;49.412;20.956;2022-11-06T12:25:35;22.55;;;20.85;;
22046;SDS011;11187;49.412;20.956;2022-11-06T12:28:26;23.75;;;21.55;;
22046;SDS011;11187;49.412;20.956;2022-11-06T12:31:14;19.98;;;18.48;;
22046;SDS011;11187;49.412;20.956;2022-11-06T12:34:13;23.30;;;21.45;;
22046;SDS011;11187;49.412;20.956;2022-11-06T12:40:31;21.35;;;19.45;;
22046;SDS011;11187;49.412;20.956;2022-11-06T12:55:26;21.60;;;19.77;;
22046;SDS011;11187;49.412;20.956;2022-11-06T12:58:37;21.27;;;19.40;;
22046;SDS011;11187;49.412;20.956;2022-11-06T13:07:33;21.70;;;20.00;;
22046;SDS011;11187;49.412;20.956;2022-11-06T13:20:15;21.23;;;19.42;;
22046;SDS011;11187;49.412;20.956;2022-11-06T13:23:34;21.27;;;19.55;;
22046;SDS011;11187;49.412;20.956;2022-11-06T13:26:14;22.00;;;20.10;;
22046;SDS011;11187;49.412;20.956;2022-11-06T13:29:14;21.98;;;19.98;;
22046;SDS011;11187;49.412;20.956;2022-11-06T13:31:52;22.00;;;20.20;;
22046;SDS011;11187;49.412;20.956;2022-11-06T13:34:47;20.35;;;18.63;;
22046;SDS011;11187;49.412;20.956;2022-11-06T13:37:37;21.67;;;19.83;;
22046;SDS011;11187;49.412;20.956;2022-11-06T13:40:27;29.38;;;26.27;;
22046;SDS011;11187;49.412;20.956;2022-11-06T13:43:06;25.27;;;22.58;;
22046;SDS011;11187;49.412;20.956;2022-11-06T13:48:54;22.35;;;20.45;;
22046;SDS011;11187;49.412;20.956;2022-11-06T13:52:01;21.73;;;19.80;;
22046;SDS011;11187;49.412;20.956;2022-11-06T13:55:11;22.50;;;20.70;;
22046;SDS011;11187;49.412;20.956;2022-11-06T13:58:10;20.85;;;19.00;;
22046;SDS011;11187;49.412;20.956;2022-11-06T14:07:11;25.27;;;22.95;;
22046;SDS011;11187;49.412;20.956;2022-11-06T14:09:46;24.52;;;22.13;;
22046;SDS011;11187;49.412;20.956;2022-11-06T14:12:33;22.80;;;20.75;;
22046;SDS011;11187;49.412;20.956;2022-11-06T14:15:40;21.20;;;19.40;;
22046;SDS011;11187;49.412;20.956;2022-11-06T14:18:32;23.05;;;20.85;;
22046;SDS011;11187;49.412;20.956;2022-11-06T14:21:41;23.40;;;21.25;;
22046;SDS011;11187;49.412;20.956;2022-11-06T14:24:40;23.08;;;21.05;;
22046;SDS011;11187;49.412;20.956;2022-11-06T14:36:35;27.38;;;23.80;;
22046;SDS011;11187;49.412;20.956;2022-11-06T14:39:09;40.53;;;27.58;;
22046;SDS011;11187;49.412;20.956;2022-11-06T14:42:05;35.70;;;27.42;;
22046;SDS011;11187;49.412;20.956;2022-11-06T14:50:39;27.50;;;23.52;;
22046;SDS011;11187;49.412;20.956;2022-11-06T14:53:28;27.38;;;24.38;;
22046;SDS011;11187;49.412;20.956;2022-11-06T14:56:26;26.73;;;24.05;;
22046;SDS011;11187;49.412;20.956;2022-11-06T14:59:06;24.83;;;22.10;;
22046;SDS011;11187;49.412;20.956;2022-11-06T15:02:18;24.58;;;22.00;;
22046;SDS011;11187;49.412;20.956;2022-11-06T15:04:56;28.08;;;24.63;;
22046;SDS011;11187;49.412;20.956;2022-11-06T15:07:56;26.35;;;23.65;;
22046;SDS011;11187;49.412;20.956;2022-11-06T15:10:51;29.00;;;26.10;;
22046;SDS011;11187;49.412;20.956;2022-11-06T15:13:45;27.40;;;24.70;;
22046;SDS011;11187;49.412;20.956;2022-11-06T15:16:19;26.40;;;23.50;;
22046;SDS011;11187;49.412;20.956;2022-11-06T15:19:14;27.88;;;24.98;;
22046;SDS011;11187;49.412;20.956;2022-11-06T15:22:11;31.70;;;24.40;;
22046;SDS011;11187;49.412;20.956;2022-11-06T15:25:11;27.60;;;24.80;;
22046;SDS011;11187;49.412;20.956;2022-11-06T15:28:14;28.02;;;25.17;;
22046;SDS011;11187;49.412;20.956;2022-11-06T15:31:03;25.52;;;22.83;;
22046;SDS011;11187;49.412;20.956;2022-11-06T15:33:54;25.95;;;23.35;;
22046;SDS011;11187;49.412;20.956;2022-11-06T15:36:31;26.65;;;23.92;;
22046;SDS011;11187;49.412;20.956;2022-11-06T15:39:32;27.40;;;24.67;;
22046;SDS011;11187;49.412;20.956;2022-11-06T15:42:15;28.67;;;25.83;;
22046;SDS011;11187;49.412;20.956;2022-11-06T15:48:22;26.25;;;23.65;;
22046;SDS011;11187;49.412;20.956;2022-11-06T15:50:56;25.65;;;23.23;;
22046;SDS011;11187;49.412;20.956;2022-11-06T15:53:49;26.67;;;23.95;;
22046;SDS011;11187;49.412;20.956;2022-11-06T15:56:30;27.05;;;24.65;;
22046;SDS011;11187;49.412;20.956;2022-11-06T15:59:19;24.75;;;22.35;;
22046;SDS011;11187;49.412;20.956;2022-11-06T16:01:53;24.55;;;22.25;;
22046;SDS011;11187;49.412;20.956;2022-11-06T16:04:39;27.10;;;24.63;;
22046;SDS011;11187;49.412;20.956;2022-11-06T16:07:14;25.40;;;23.05;;
22046;SDS011;11187;49.412;20.956;2022-11-06T16:10:02;26.13;;;23.67;;
22046;SDS011;11187;49.412;20.956;2022-11-06T16:12:37;25.70;;;23.40;;
22046;SDS011;11187;49.412;20.956;2022-11-06T16:18:20;24.90;;;22.70;;
22046;SDS011;11187;49.412;20.956;2022-11-06T16:21:18;25.58;;;23.38;;
22046;SDS011;11187;49.412;20.956;2022-11-06T16:23:55;22.85;;;20.85;;
22046;SDS011;11187;49.412;20.956;2022-11-06T16:26:38;24.38;;;21.95;;
22046;SDS011;11187;49.412;20.956;2022-11-06T16:29:25;24.55;;;22.33;;
22046;SDS011;11187;49.412;20.956;2022-11-06T16:32:28;24.83;;;22.65;;
22046;SDS011;11187;49.412;20.956;2022-11-06T16:41:20;23.77;;;21.67;;
22046;SDS011;11187;49.412;20.956;2022-11-06T16:44:42;27.92;;;25.23;;
22046;SDS011;11187;49.412;20.956;2022-11-06T16:47:30;28.73;;;26.02;;
22046;SDS011;11187;49.412;20.956;2022-11-06T16:50:04;24.60;;;22.38;;
22046;SDS011;11187;49.412;20.956;2022-11-06T16:53:30;25.90;;;23.27;;
22046;SDS011;11187;49.412;20.956;2022-11-06T16:56:13;26.33;;;23.50;;
22046;SDS011;11187;49.412;20.956;2022-11-06T16:59:04;25.38;;;23.02;;
22046;SDS011;11187;49.412;20.956;2022-11-06T17:01:41;26.23;;;23.85;;
22046;SDS011;11187;49.412;20.956;2022-11-06T17:04:30;25.38;;;23.08;;
22046;SDS011;11187;49.412;20.956;2022-11-06T17:07:04;23.15;;;21.15;;
22046;SDS011;11187;49.412;20.956;2022-11-06T17:09:50;23.90;;;21.77;;
22046;SDS011;11187;49.412;20.956;2022-11-06T17:12:24;24.52;;;21.98;;
22046;SDS011;11187;49.412;20.956;2022-11-06T17:15:10;22.40;;;20.35;;
22046;SDS011;11187;49.412;20.956;2022-11-06T17:17:44;24.48;;;22.27;;
22046;SDS011;11187;49.412;20.956;2022-11-06T17:20:30;29.35;;;26.38;;
22046;SDS011;11187;49.412;20.956;2022-11-06T17:23:26;27.42;;;24.42;;
22046;SDS011;11187;49.412;20.956;2022-11-06T17:26:24;25.75;;;22.77;;
22046;SDS011;11187;49.412;20.956;2022-11-06T17:29:22;32.88;;;29.40;;
22046;SDS011;11187;49.412;20.956;2022-11-06T17:32:16;30.98;;;27.65;;
22046;SDS011;11187;49.412;20.956;2022-11-06T17:34:50;32.63;;;27.20;;
22046;SDS011;11187;49.412;20.956;2022-11-06T17:37:36;30.40;;;27.10;;
22046;SDS011;11187;49.412;20.956;2022-11-06T17:40:10;26.95;;;24.38;;
22046;SDS011;11187;49.412;20.956;2022-11-06T17:42:57;24.98;;;22.77;;
22046;SDS011;11187;49.412;20.956;2022-11-06T17:45:31;25.38;;;23.08;;
22046;SDS011;11187;49.412;20.956;2022-11-06T17:48:17;28.98;;;26.30;;
22046;SDS011;11187;49.412;20.956;2022-11-06T17:50:51;27.88;;;24.95;;
22046;SDS011;11187;49.412;20.956;2022-11-06T17:54:02;30.38;;;26.95;;
22046;SDS011;11187;49.412;20.956;2022-11-06T17:56:57;31.63;;;27.77;;
22046;SDS011;11187;49.412;20.956;2022-11-06T17:59:51;51.38;;;36.35;;
22046;SDS011;11187;49.412;20.956;2022-11-06T18:02:25;66.15;;;43.30;;
22046;SDS011;11187;49.412;20.956;2022-11-06T18:05:31;72.70;;;42.97;;
22046;SDS011;11187;49.412;20.956;2022-11-06T18:08:05;69.35;;;44.40;;